Time;durP1;ratioP1;P1;durP2;ratioP2;P2;SDS_P1;SDS_P2;PMS_P1;PMS_P2;Temp;Humidity;BMP_temperature;BMP_pressure;BME280_temperature;BME280_humidity;BME280_pressure;Samples;Min_cycle;Max_cycle;Signal;HPM_P1;HPM_P2
2022/12/09 00:02:07;;;;;;;30.73;27.37;;;;;;;0.34;100.00;100497.59;5286652;28;20107;-75
2022/12/09 00:04:38;;;;;;;34.97;28.17;;;;;;;0.31;100.00;100494.97;5287083;28;20116;-75
2022/12/09 00:07:10;;;;;;;34.33;28.47;;;;;;;0.35;100.00;100496.78;5286534;28;20028;-75
2022/12/09 00:09:41;;;;;;;35.80;29.30;;;;;;;0.35;100.00;100494.22;5287128;28;20029;-75
2022/12/09 00:12:13;;;;;;;36.83;30.40;;;;;;;0.34;100.00;100487.34;5286569;28;20119;-75
2022/12/09 00:14:44;;;;;;;36.03;28.73;;;;;;;0.35;100.00;100494.22;5286096;28;20110;-75
2022/12/09 00:17:15;;;;;;;34.77;29.80;;;;;;;0.32;100.00;100496.69;5286454;28;20395;-75
2022/12/09 00:19:47;;;;;;;36.37;29.27;;;;;;;0.34;100.00;100492.47;5286550;28;20464;-75
2022/12/09 00:22:18;;;;;;;40.43;30.20;;;;;;;0.36;100.00;100487.38;5286185;28;20028;-75
2022/12/09 00:24:49;;;;;;;37.27;30.40;;;;;;;0.37;100.00;100496.78;5285889;28;20499;-76
2022/12/09 00:27:21;;;;;;;34.50;30.63;;;;;;;0.41;100.00;100487.50;5285404;28;20039;-76
2022/12/09 00:29:52;;;;;;;37.67;30.43;;;;;;;0.41;100.00;100490.06;5286468;28;20043;-75
2022/12/09 00:32:23;;;;;;;36.33;30.03;;;;;;;0.40;100.00;100485.75;5286593;28;20028;-75
2022/12/09 00:34:55;;;;;;;37.00;31.07;;;;;;;0.42;100.00;100492.66;5285904;28;20491;-75
2022/12/09 00:37:26;;;;;;;39.20;31.00;;;;;;;0.46;100.00;100496.16;5285652;28;20033;-76
2022/12/09 00:39:57;;;;;;;40.23;30.63;;;;;;;0.49;100.00;100496.22;5267819;28;20094;-75
2022/12/09 00:42:29;;;;;;;38.57;32.20;;;;;;;0.43;100.00;100490.94;5285807;28;20028;-74
2022/12/09 00:45:00;;;;;;;42.93;32.60;;;;;;;0.50;100.00;100490.25;5285778;28;20475;-75
2022/12/09 00:47:31;;;;;;;41.80;32.23;;;;;;;0.58;100.00;100499.00;5267853;28;20037;-75
2022/12/09 00:50:04;;;;;;;39.67;31.87;;;;;;;0.50;100.00;100500.50;5285740;28;20032;-76
2022/12/09 00:52:36;;;;;;;40.63;31.83;;;;;;;0.53;100.00;100490.31;5285671;28;20048;-74
2022/12/09 00:55:08;;;;;;;42.33;32.70;;;;;;;0.49;100.00;100494.53;5285348;28;20028;-74
2022/12/09 00:57:39;;;;;;;39.93;32.63;;;;;;;0.49;100.00;100496.22;5285810;28;20078;-75
2022/12/09 01:00:11;;;;;;;40.13;33.23;;;;;;;0.51;100.00;100502.25;5285554;28;20275;-75
2022/12/09 01:02:42;;;;;;;42.90;32.20;;;;;;;0.46;100.00;100493.59;5285793;28;20128;-74
2022/12/09 01:05:14;;;;;;;41.93;32.60;;;;;;;0.45;100.00;100490.16;5285280;28;20032;-75
2022/12/09 01:07:45;;;;;;;41.67;34.77;;;;;;;0.47;100.00;100485.94;5285880;28;20464;-75
2022/12/09 01:10:16;;;;;;;46.93;34.60;;;;;;;0.51;100.00;100487.72;5285402;28;20067;-74
2022/12/09 01:12:48;;;;;;;46.30;34.57;;;;;;;0.49;100.00;100485.97;5285251;28;20035;-75
2022/12/09 01:15:19;;;;;;;42.70;35.40;;;;;;;0.49;100.00;100486.81;5284947;28;20028;-75
2022/12/09 01:17:50;;;;;;;44.07;34.03;;;;;;;0.54;100.00;100499.75;5284930;28;20117;-75
2022/12/09 01:20:22;;;;;;;46.63;36.07;;;;;;;0.54;100.00;100487.78;5285429;28;20025;-74
2022/12/09 01:22:53;;;;;;;47.40;35.50;;;;;;;0.49;100.00;100489.41;5285142;28;20116;-74
2022/12/09 01:25:25;;;;;;;48.13;34.50;;;;;;;0.56;100.00;100498.09;5285506;28;20119;-75
2022/12/09 01:27:57;;;;;;;46.57;33.20;;;;;;;0.61;100.00;100501.66;5285014;28;20037;-75
2022/12/09 01:30:28;;;;;;;45.57;35.80;;;;;;;0.60;100.00;100499.91;5284998;28;20047;-75
2022/12/09 01:33:00;;;;;;;47.97;36.67;;;;;;;0.57;100.00;100501.53;5284605;28;20078;-75
2022/12/09 01:35:31;;;;;;;51.33;39.60;;;;;;;0.50;100.00;100500.50;5284518;28;20052;-76
2022/12/09 01:38:02;;;;;;;52.80;37.70;;;;;;;0.53;100.00;100498.91;5283911;28;20035;-76
2022/12/09 01:40:34;;;;;;;50.93;37.83;;;;;;;0.57;100.00;100498.97;5284933;28;20032;-73
2022/12/09 01:43:16;;;;;;;45.87;36.57;;;;;;;0.60;100.00;100502.47;5284769;28;20028;-76
2022/12/09 01:45:48;;;;;;;49.30;38.00;;;;;;;0.61;100.00;100505.91;5285106;28;20024;-76
2022/12/09 01:48:22;;;;;;;56.70;37.73;;;;;;;0.52;100.00;100504.84;5266683;28;20032;-76
2022/12/09 01:51:01;;;;;;;54.40;38.30;;;;;;;0.50;100.00;100500.50;5284426;28;20028;-75
2022/12/09 01:53:36;;;;;;;54.70;38.22;;;;;;;0.51;100.00;100499.69;5284232;28;20349;-75
2022/12/09 01:56:15;;;;;;;46.83;38.15;;;;;;;0.53;100.00;100504.03;5284633;28;20028;-76
2022/12/09 01:58:48;;;;;;;55.03;38.55;;;;;;;0.57;100.00;100502.41;5284614;28;20025;-74
2022/12/09 02:01:20;;;;;;;51.22;39.78;;;;;;;0.61;100.00;100499.09;5266550;28;20111;-75
2022/12/09 02:03:52;;;;;;;48.23;38.67;;;;;;;0.63;100.00;100504.22;5266334;28;20449;-75
2022/12/09 02:06:23;;;;;;;58.73;40.87;;;;;;;0.63;100.00;100499.09;5284249;28;20489;-75
2022/12/09 02:08:55;;;;;;;57.67;39.30;;;;;;;0.64;100.00;100494.00;5284140;28;20448;-75
2022/12/09 02:12:05;;;;;;;50.10;37.22;;;;;;;0.70;100.00;100504.41;5284021;28;20039;-76
2022/12/09 02:14:44;;;;;;;52.88;37.42;;;;;;;0.63;100.00;100502.53;5268617;28;20041;-76
2022/12/09 02:17:26;;;;;;;56.13;38.55;;;;;;;0.62;100.00;100510.22;5284251;28;20032;-76
2022/12/09 02:20:28;;;;;;;50.05;37.85;;;;;;;0.64;100.00;100505.97;5283738;28;20029;-76
2022/12/09 02:23:10;;;;;;;55.08;38.65;;;;;;;0.65;100.00;100505.16;5283841;28;20467;-77
2022/12/09 02:25:46;;;;;;;60.10;39.60;;;;;;;0.68;100.00;100505.22;5283717;28;20383;-76
2022/12/09 02:28:21;;;;;;;56.50;41.67;;;;;;;0.67;100.00;100508.59;5284142;28;20256;-76
2022/12/09 02:31:23;;;;;;;62.42;39.38;;;;;;;0.70;100.00;100509.53;5284085;28;20364;-76
2022/12/09 02:34:35;;;;;;;59.42;41.17;;;;;;;0.69;100.00;100507.81;5284135;28;20056;-76
2022/12/09 02:37:17;;;;;;;64.35;43.08;;;;;;;0.65;100.00;100503.44;5178430;28;20078;-76
2022/12/09 02:39:58;;;;;;;62.83;42.70;;;;;;;0.63;100.00;100502.53;5179034;28;20038;-76
2022/12/09 02:42:33;;;;;;;66.55;42.65;;;;;;;0.58;100.00;100503.25;5253298;28;20467;-76
2022/12/09 02:45:08;;;;;;;64.20;43.65;;;;;;;0.57;100.00;100493.84;5283422;28;20028;-76
2022/12/09 02:47:47;;;;;;;69.53;46.20;;;;;;;0.59;100.00;100489.63;5283556;28;20047;-76
2022/12/09 02:50:22;;;;;;;65.75;43.45;;;;;;;0.60;100.00;100491.34;5283470;28;20379;-76
2022/12/09 02:52:57;;;;;;;65.70;45.80;;;;;;;0.64;100.00;100490.56;5283532;28;20045;-77
2022/12/09 02:55:31;;;;;;;69.18;44.58;;;;;;;0.64;100.00;100486.31;5283476;28;20055;-76
2022/12/09 02:58:03;;;;;;;67.97;44.28;;;;;;;0.66;100.00;100492.34;5265244;28;20055;-76
2022/12/09 03:00:36;;;;;;;71.60;45.83;;;;;;;0.71;100.00;100485.63;5283353;28;20613;-76
2022/12/09 03:03:13;;;;;;;71.55;44.33;;;;;;;0.72;100.00;100482.25;5283443;28;20349;-76
2022/12/09 03:06:12;;;;;;;71.90;44.78;;;;;;;0.76;100.00;100487.41;5265539;28;20155;-76
2022/12/09 03:09:05;;;;;;;66.78;44.10;;;;;;;0.84;100.00;100491.91;5283911;28;20086;-76
2022/12/09 03:11:36;;;;;;;64.25;44.58;;;;;;;0.82;100.00;100487.56;5283393;28;20452;-76
2022/12/09 03:14:25;;;;;;;73.93;48.17;;;;;;;0.83;100.00;100484.16;5283166;28;20033;-76
2022/12/09 03:17:11;;;;;;;90.35;46.67;;;;;;;0.88;100.00;100488.56;5282943;28;20033;-76
2022/12/09 03:19:49;;;;;;;72.68;46.05;;;;;;;0.82;100.00;100480.75;5283531;28;20031;-76
2022/12/09 03:22:27;;;;;;;73.25;45.80;;;;;;;0.81;100.00;100481.56;5283206;28;20403;-75
2022/12/09 03:25:13;;;;;;;75.70;46.42;;;;;;;0.83;100.00;100477.31;5264792;28;20120;-76
2022/12/09 03:28:03;;;;;;;74.60;46.60;;;;;;;0.81;100.00;100475.56;5282988;28;20368;-77
2022/12/09 03:30:39;;;;;;;81.50;48.65;;;;;;;0.83;100.00;100468.78;5283190;28;20060;-76
2022/12/09 03:33:14;;;;;;;76.05;45.33;;;;;;;0.85;100.00;100465.41;5282610;28;20029;-76
2022/12/09 03:35:51;;;;;;;90.32;49.05;;;;;;;0.86;100.00;100469.69;5282835;28;20422;-76
2022/12/09 03:38:27;;;;;;;93.47;47.25;;;;;;;0.83;100.00;100454.22;5283033;28;20032;-76
2022/12/09 03:41:14;;;;;;;76.53;45.97;;;;;;;0.88;100.00;100462.88;5282702;28;20380;-76
2022/12/09 03:43:52;;;;;;;74.57;47.65;;;;;;;0.85;100.00;100456.84;5283311;28;20151;-76
2022/12/09 03:46:26;;;;;;;74.43;45.05;;;;;;;0.87;100.00;100462.84;5283473;28;20028;-76
2022/12/09 03:48:58;;;;;;;94.60;49.35;;;;;;;0.87;100.00;100461.19;5282970;28;20052;-74
2022/12/09 03:51:36;;;;;;;83.60;48.03;;;;;;;0.90;100.00;100460.34;5282945;28;20075;-75
2022/12/09 03:54:22;;;;;;;98.18;47.70;;;;;;;0.88;100.00;100456.91;5282916;28;20023;-74
2022/12/09 03:56:56;;;;;;;88.40;49.90;;;;;;;0.87;100.00;100457.72;5283065;28;20108;-74
2022/12/09 03:59:31;;;;;;;80.47;47.58;;;;;;;0.92;100.00;100463.84;5282847;28;20025;-74
2022/12/09 04:02:05;;;;;;;83.07;47.13;;;;;;;0.87;100.00;100460.28;5283708;28;20033;-76
2022/12/09 04:04:40;;;;;;;78.03;47.58;;;;;;;0.91;100.00;100465.53;5286805;28;20486;-76
2022/12/09 04:07:11;;;;;;;89.65;48.88;;;;;;;0.86;100.00;100462.00;5286516;28;20483;-76
2022/12/09 04:09:43;;;;;;;87.97;53.37;;;;;;;0.91;100.00;100462.09;5286472;28;20210;-77
2022/12/09 04:12:15;;;;;;;83.47;50.23;;;;;;;0.95;100.00;100463.03;5286479;28;20035;-76
2022/12/09 04:14:46;;;;;;;85.90;49.90;;;;;;;0.89;100.00;100453.50;5286418;28;20052;-76
2022/12/09 04:17:17;;;;;;;77.47;48.87;;;;;;;0.94;100.00;100454.47;5268870;28;20460;-76
2022/12/09 04:19:49;;;;;;;77.80;48.40;;;;;;;0.95;100.00;100448.50;5286348;28;20106;-76
2022/12/09 04:22:20;;;;;;;81.50;50.33;;;;;;;0.91;100.00;100456.97;5286142;28;20032;-77
2022/12/09 04:24:52;;;;;;;71.77;45.93;;;;;;;0.93;100.00;100457.84;5285955;28;20078;-76
2022/12/09 04:27:23;;;;;;;74.77;48.00;;;;;;;0.94;100.00;100456.19;5286148;28;20107;-76
2022/12/09 04:29:54;;;;;;;68.30;46.13;;;;;;;0.92;100.00;100448.44;5286493;28;20036;-76
2022/12/09 04:32:28;;;;;;;72.17;48.33;;;;;;;0.95;100.00;100456.22;5286342;28;20037;-76
2022/12/09 04:34:59;;;;;;;73.38;47.33;;;;;;;0.96;100.00;100450.22;5286047;28;20066;-76
2022/12/09 04:37:32;;;;;;;65.70;43.73;;;;;;;0.96;100.00;100457.06;5285776;28;20165;-77
2022/12/09 04:40:07;;;;;;;70.95;47.47;;;;;;;0.93;100.00;100447.59;5267962;28;20029;-76
2022/12/09 04:42:38;;;;;;;70.15;46.67;;;;;;;0.88;100.00;100450.06;5286185;28;20035;-76
2022/12/09 04:45:09;;;;;;;74.63;46.03;;;;;;;0.91;100.00;100446.69;5286302;28;20033;-76
2022/12/09 04:47:41;;;;;;;76.80;46.97;;;;;;;0.86;100.00;100443.19;5285847;28;20142;-77
2022/12/09 04:50:13;;;;;;;71.67;47.80;;;;;;;0.86;100.00;100453.44;5267935;28;20028;-76
2022/12/09 04:52:44;;;;;;;70.00;46.80;;;;;;;0.88;100.00;100455.19;5281563;28;20055;-76
2022/12/09 04:55:15;;;;;;;63.70;44.57;;;;;;;0.87;100.00;100444.88;5285660;28;20483;-76
2022/12/09 04:57:47;;;;;;;73.07;45.93;;;;;;;0.91;100.00;100451.84;5267560;28;20180;-76
2022/12/09 05:00:18;;;;;;;66.20;44.03;;;;;;;0.93;100.00;100451.88;5285544;28;20404;-76
2022/12/09 05:02:50;;;;;;;69.97;46.53;;;;;;;0.94;100.00;100453.63;5285685;28;20106;-76
2022/12/09 05:05:21;;;;;;;63.50;45.23;;;;;;;0.95;100.00;100451.09;5285393;28;20037;-76
2022/12/09 05:07:52;;;;;;;68.43;45.97;;;;;;;0.96;100.00;100447.66;5285358;28;20028;-76
2022/12/09 05:10:24;;;;;;;65.63;46.97;;;;;;;0.97;100.00;100454.53;5285225;28;20060;-76
2022/12/09 05:12:55;;;;;;;70.70;45.60;;;;;;;0.95;100.00;100443.38;5284672;28;20059;-77
2022/12/09 05:15:27;;;;;;;74.43;46.00;;;;;;;1.00;100.00;100456.28;5285354;28;20060;-76
2022/12/09 05:18:01;;;;;;;65.20;45.60;;;;;;;0.95;100.00;100453.66;5284998;28;20074;-77
2022/12/09 05:20:32;;;;;;;64.90;44.95;;;;;;;0.95;100.00;100456.22;5267449;28;20032;-76
2022/12/09 05:23:03;;;;;;;66.37;44.83;;;;;;;0.98;100.00;100460.53;5284584;28;20032;-76
2022/12/09 05:25:35;;;;;;;66.73;44.93;;;;;;;0.95;100.00;100452.75;5284883;28;20123;-76
2022/12/09 05:28:06;;;;;;;67.80;42.93;;;;;;;0.97;100.00;100446.84;5285326;28;20124;-76
2022/12/09 05:30:38;;;;;;;65.70;44.60;;;;;;;0.99;100.00;100450.28;5284777;28;20090;-76
2022/12/09 05:33:09;;;;;;;66.57;45.13;;;;;;;0.98;100.00;100456.25;5285010;28;20032;-75
2022/12/09 05:35:43;;;;;;;62.80;43.37;;;;;;;1.00;100.00;100454.59;5284719;28;20032;-75
2022/12/09 05:38:14;;;;;;;62.47;44.20;;;;;;;0.94;100.00;100456.19;5284503;28;20036;-74
2022/12/09 05:40:46;;;;;;;67.43;44.80;;;;;;;0.99;100.00;100447.72;5284530;28;20037;-74
2022/12/09 05:43:18;;;;;;;69.80;45.50;;;;;;;0.98;100.00;100451.13;5284453;28;20024;-74
2022/12/09 05:45:49;;;;;;;67.37;46.20;;;;;;;0.96;100.00;100464.78;5284436;28;20021;-74
2022/12/09 05:48:20;;;;;;;71.40;46.03;;;;;;;0.93;100.00;100452.72;5284026;28;20119;-74
2022/12/09 05:51:00;;;;;;;70.17;45.00;;;;;;;0.96;100.00;100451.94;5284121;28;20151;-74
2022/12/09 05:53:32;;;;;;;69.63;45.28;;;;;;;0.88;100.00;100454.34;5284228;28;20052;-74
2022/12/09 05:56:03;;;;;;;73.28;46.67;;;;;;;0.89;100.00;100448.38;5283998;28;20035;-74
2022/12/09 05:58:35;;;;;;;69.23;43.50;;;;;;;0.86;100.00;100444.03;5284303;28;20036;-74
2022/12/09 06:01:07;;;;;;;73.53;46.47;;;;;;;0.83;100.00;100448.25;5284166;28;20032;-74
2022/12/09 06:03:39;;;;;;;78.20;48.38;;;;;;;0.76;100.00;100452.38;5284234;28;20058;-74
2022/12/09 06:06:13;;;;;;;78.25;47.88;;;;;;;0.72;100.00;100440.31;5284677;28;20087;-74
2022/12/09 06:08:45;;;;;;;78.97;48.45;;;;;;;0.71;100.00;100441.16;5284158;28;20025;-73
2022/12/09 06:11:19;;;;;;;82.22;48.40;;;;;;;0.70;100.00;100442.84;5283748;28;20364;-74
2022/12/09 06:13:51;;;;;;;81.60;50.33;;;;;;;0.74;100.00;100438.63;5283880;28;20059;-74
2022/12/09 06:16:22;;;;;;;85.65;49.42;;;;;;;0.75;100.00;100444.66;5284009;28;20093;-75
2022/12/09 06:18:54;;;;;;;84.63;48.80;;;;;;;0.75;100.00;100439.53;5284068;28;20040;-73
2022/12/09 06:21:25;;;;;;;84.17;48.30;;;;;;;0.77;100.00;100437.84;5283863;28;20107;-74
2022/12/09 06:23:57;;;;;;;80.93;49.30;;;;;;;0.70;100.00;100432.56;5283864;28;20043;-74
2022/12/09 06:26:29;;;;;;;80.70;50.83;;;;;;;0.73;100.00;100445.47;5283861;28;20036;-73
2022/12/09 06:29:00;;;;;;;85.60;50.60;;;;;;;0.68;100.00;100443.66;5283725;28;20306;-73
2022/12/09 06:31:31;;;;;;;88.90;51.33;;;;;;;0.65;100.00;100448.72;5283549;28;20037;-73
2022/12/09 06:34:03;;;;;;;82.73;51.20;;;;;;;0.66;100.00;100448.75;5265942;28;20077;-73
2022/12/09 06:36:34;;;;;;;82.97;47.10;;;;;;;0.68;100.00;100444.50;5283480;28;20043;-72
2022/12/09 06:39:06;;;;;;;76.80;48.30;;;;;;;0.67;100.00;100449.59;5265559;28;20033;-73
2022/12/09 06:41:40;;;;;;;82.30;48.60;;;;;;;0.64;100.00;100441.84;5283416;28;20058;-73
2022/12/09 06:44:12;;;;;;;78.60;48.28;;;;;;;0.64;100.00;100444.41;5283682;28;20467;-73
2022/12/09 06:46:43;;;;;;;85.80;48.50;;;;;;;0.69;100.00;100446.25;5283482;28;20036;-73
2022/12/09 06:49:15;;;;;;;83.73;49.60;;;;;;;0.65;100.00;100436.75;5283899;28;20271;-73
2022/12/09 06:51:46;;;;;;;81.03;49.90;;;;;;;0.67;100.00;100445.34;5283148;28;20379;-73
2022/12/09 06:54:17;;;;;;;80.03;49.47;;;;;;;0.68;100.00;100443.66;5283808;28;20036;-73
2022/12/09 06:56:49;;;;;;;78.40;49.73;;;;;;;0.69;100.00;100437.66;5283668;28;20152;-73
2022/12/09 06:59:20;;;;;;;78.17;48.43;;;;;;;0.65;100.00;100439.31;5283342;28;20495;-74
2022/12/09 07:01:52;;;;;;;79.17;47.17;;;;;;;0.68;100.00;100441.94;5283182;28;20108;-74
2022/12/09 07:04:23;;;;;;;72.43;46.03;;;;;;;0.77;100.00;100445.53;5283249;28;20035;-73
2022/12/09 07:06:54;;;;;;;73.63;46.13;;;;;;;0.77;100.00;100438.69;5283291;28;20035;-75
2022/12/09 07:09:26;;;;;;;74.87;47.00;;;;;;;0.76;100.00;100454.06;5283512;28;20090;-75
2022/12/09 07:11:57;;;;;;;82.60;45.97;;;;;;;0.73;100.00;100450.59;5283347;28;20075;-73
2022/12/09 07:14:28;;;;;;;83.03;48.37;;;;;;;0.77;100.00;100454.09;5283093;28;20029;-74
2022/12/09 07:17:00;;;;;;;69.90;45.27;;;;;;;0.73;100.00;100453.16;5283289;28;20032;-75
2022/12/09 07:19:32;;;;;;;69.17;46.03;;;;;;;0.78;100.00;100454.97;5283234;28;20542;-74
2022/12/09 07:22:03;;;;;;;65.20;45.13;;;;;;;0.82;100.00;100461.91;5265641;28;20024;-75
2022/12/09 07:24:37;;;;;;;65.33;45.03;;;;;;;0.78;100.00;100467.81;5248517;28;20036;-74
2022/12/09 07:27:13;;;;;;;69.57;46.85;;;;;;;0.72;100.00;100464.28;5283192;28;20028;-74
2022/12/09 07:29:44;;;;;;;60.35;43.38;;;;;;;0.74;100.00;100466.84;5283614;28;20033;-74
2022/12/09 07:32:16;;;;;;;63.90;44.07;;;;;;;0.67;100.00;100458.16;5264933;28;20206;-73
2022/12/09 07:34:47;;;;;;;61.73;42.30;;;;;;;0.71;100.00;100461.69;5283031;28;20043;-74
2022/12/09 07:37:18;;;;;;;60.87;43.43;;;;;;;0.66;100.00;100465.81;5284813;28;20032;-75
2022/12/09 07:39:50;;;;;;;60.43;42.07;;;;;;;0.60;100.00;100469.13;5268833;28;20150;-74
2022/12/09 07:42:21;;;;;;;58.73;41.00;;;;;;;0.59;100.00;100459.69;5287011;28;20037;-74
2022/12/09 07:44:52;;;;;;;64.90;42.77;;;;;;;0.61;100.00;100468.31;5286707;28;20025;-74
2022/12/09 07:47:24;;;;;;;62.27;43.37;;;;;;;0.64;100.00;100468.34;5286703;28;20032;-73
2022/12/09 07:49:55;;;;;;;55.93;41.30;;;;;;;0.65;100.00;100477.78;5268621;28;20036;-73
2022/12/09 07:52:26;;;;;;;61.70;42.17;;;;;;;0.68;100.00;100484.69;5286328;28;20123;-73
2022/12/09 07:55:00;;;;;;;61.67;42.70;;;;;;;0.68;100.00;100479.56;5286682;28;20111;-74
2022/12/09 07:57:33;;;;;;;57.63;40.47;;;;;;;0.63;100.00;100486.28;5252754;28;20032;-73
2022/12/09 08:00:05;;;;;;;64.05;42.75;;;;;;;0.68;100.00;100490.69;5268892;28;20028;-73
2022/12/09 08:02:37;;;;;;;56.38;41.78;;;;;;;0.73;100.00;100477.97;5286582;28;20047;-74
2022/12/09 08:05:09;;;;;;;57.63;41.17;;;;;;;0.77;100.00;100482.31;5286357;28;20029;-73
2022/12/09 08:07:40;;;;;;;65.27;41.27;;;;;;;0.80;100.00;100478.97;5251837;28;20474;-74
2022/12/09 08:10:11;;;;;;;56.57;41.67;;;;;;;0.76;100.00;100483.16;5285919;28;20098;-74
2022/12/09 08:12:44;;;;;;;62.53;42.40;;;;;;;0.79;100.00;100479.78;5286543;28;20052;-73
2022/12/09 08:15:18;;;;;;;63.13;43.38;;;;;;;0.85;100.00;100485.94;5286475;28;20044;-73
2022/12/09 08:17:49;;;;;;;59.22;40.58;;;;;;;0.90;100.00;100488.59;5286115;28;20029;-73
2022/12/09 08:20:20;;;;;;;62.30;43.83;;;;;;;0.84;100.00;100493.59;5268527;28;20043;-73
2022/12/09 08:22:52;;;;;;;60.77;42.67;;;;;;;0.85;100.00;100475.69;5286173;28;20050;-74
2022/12/09 08:25:23;;;;;;;61.47;41.00;;;;;;;0.84;100.00;100486.78;5286050;28;20482;-74
2022/12/09 08:27:55;;;;;;;62.90;42.13;;;;;;;0.90;100.00;100492.03;5285710;28;20098;-75
2022/12/09 08:30:26;;;;;;;63.90;41.20;;;;;;;0.91;100.00;100490.31;5286143;28;20060;-74
2022/12/09 08:32:58;;;;;;;61.90;43.40;;;;;;;0.86;100.00;100485.09;5285935;28;20040;-75
2022/12/09 08:35:29;;;;;;;58.27;40.50;;;;;;;0.85;100.00;100477.34;5285832;28;20447;-74
2022/12/09 08:38:01;;;;;;;60.10;42.10;;;;;;;0.80;100.00;100486.66;5286258;28;20360;-74
2022/12/09 08:40:32;;;;;;;55.73;40.17;;;;;;;0.75;100.00;100483.13;5285781;28;20423;-75
2022/12/09 08:43:07;;;;;;;51.47;38.57;;;;;;;0.67;100.00;100480.38;5268022;28;20029;-74
2022/12/09 08:45:40;;;;;;;56.72;39.70;;;;;;;0.60;100.00;100491.34;5285508;28;20036;-74
2022/12/09 08:48:11;;;;;;;56.55;39.78;;;;;;;0.46;100.00;100480.75;5285243;28;20036;-74
2022/12/09 08:50:42;;;;;;;59.87;39.57;;;;;;;0.51;100.00;100477.47;5285605;28;20129;-74
2022/12/09 08:53:14;;;;;;;55.87;39.67;;;;;;;0.43;100.00;100475.56;5246510;28;20050;-74
2022/12/09 08:55:45;;;;;;;57.10;39.03;;;;;;;0.50;100.00;100480.00;5264796;28;20486;-74
2022/12/09 08:58:16;;;;;;;61.87;41.70;;;;;;;0.53;100.00;100474.94;5264641;28;20124;-74
2022/12/09 09:00:48;;;;;;;63.87;40.43;;;;;;;0.60;100.00;100479.38;5263221;28;20032;-74
2022/12/09 09:03:19;;;;;;;55.83;39.40;;;;;;;0.56;100.00;100481.84;5263346;28;20036;-74
2022/12/09 09:05:50;;;;;;;58.33;40.93;;;;;;;0.63;100.00;100483.69;5263806;28;20025;-73
2022/12/09 09:08:22;;;;;;;61.27;42.70;;;;;;;0.65;100.00;100482.06;5263413;28;20070;-74
2022/12/09 09:10:53;;;;;;;64.27;41.37;;;;;;;0.77;100.00;100490.00;5264585;28;20029;-74
2022/12/09 09:13:25;;;;;;;62.43;43.57;;;;;;;0.94;100.00;100492.97;5265064;28;20037;-74
2022/12/09 09:15:57;;;;;;;65.17;43.03;;;;;;;1.03;100.00;100500.88;5264632;28;20104;-75
2022/12/09 09:18:28;;;;;;;61.53;42.10;;;;;;;1.13;100.00;100489.09;5264053;28;20278;-74
2022/12/09 09:20:59;;;;;;;65.73;41.50;;;;;;;1.23;100.00;100498.72;5264776;28;20037;-73
2022/12/09 09:23:31;;;;;;;61.57;41.30;;;;;;;1.45;100.00;100505.16;5262849;28;20029;-73
2022/12/09 09:26:03;;;;;;;62.40;41.63;;;;;;;1.55;100.00;100498.50;5263716;28;20472;-74
2022/12/09 09:28:34;;;;;;;64.13;39.60;;;;;;;1.91;100.00;100507.72;5264064;28;20476;-74
2022/12/09 09:31:07;;;;;;;53.67;38.97;;;;;;;2.21;100.00;100501.38;5264030;28;20033;-74
2022/12/09 09:33:38;;;;;;;53.20;39.25;;;;;;;2.73;100.00;100503.91;5263642;28;20025;-74
2022/12/09 09:36:19;;;;;;;52.67;37.83;;;;;;;3.09;100.00;100493.25;5263839;28;20361;-74
2022/12/09 09:38:53;;;;;;;50.25;36.25;;;;;;;2.86;100.00;100497.22;5264152;28;20025;-74
2022/12/09 09:41:41;;;;;;;46.47;33.65;;;;;;;3.32;100.00;100500.41;5263459;28;20044;-74
2022/12/09 09:44:33;;;;;;;42.83;32.03;;;;;;;3.95;100.00;100495.94;5263178;28;20029;-74
2022/12/09 09:47:16;;;;;;;42.47;31.55;;;;;;;4.36;100.00;100498.03;5263894;28;20415;-74
2022/12/09 09:49:56;;;;;;;41.30;32.17;;;;;;;4.56;100.00;100497.31;5263723;28;20075;-73
2022/12/09 09:52:29;;;;;;;35.50;28.17;;;;;;;4.84;100.00;100492.31;5265022;28;20049;-74
2022/12/09 09:55:12;;;;;;;31.40;25.10;;;;;;;5.05;98.83;100495.00;5284366;28;20040;-73
2022/12/09 09:58:00;;;;;;;31.50;22.48;;;;;;;5.51;97.76;100501.25;5284270;28;20056;-73
2022/12/09 10:01:02;;;;;;;32.50;24.08;;;;;;;5.59;96.55;100497.81;5266295;28;20529;-73
2022/12/09 10:04:00;;;;;;;29.58;21.83;;;;;;;5.06;94.47;100486.41;5275890;28;20043;-73
2022/12/09 10:06:59;;;;;;;25.48;21.20;;;;;;;4.53;95.28;100494.69;5270719;28;20040;-72
2022/12/09 10:09:40;;;;;;;24.13;19.15;;;;;;;3.90;92.37;100492.44;5265706;28;20028;-72
2022/12/09 10:12:36;;;;;;;24.73;17.02;;;;;;;3.60;94.87;100500.72;5266453;28;20031;-73
2022/12/09 10:15:14;;;;;;;20.00;15.35;;;;;;;3.06;91.33;100503.50;5284372;28;20032;-73
2022/12/09 10:17:54;;;;;;;23.95;17.67;;;;;;;3.00;92.43;100500.84;5283559;28;20120;-74
2022/12/09 10:20:27;;;;;;;24.48;17.67;;;;;;;2.96;93.81;100505.94;5284870;28;20037;-74
2022/12/09 10:23:02;;;;;;;32.90;23.80;;;;;;;3.16;94.56;100490.75;5283462;28;20025;-74
2022/12/09 10:25:40;;;;;;;34.83;25.23;;;;;;;3.00;94.26;100497.41;5283760;28;20087;-74
2022/12/09 10:28:35;;;;;;;33.90;25.25;;;;;;;3.17;95.64;100497.63;5283888;28;20436;-74
2022/12/09 10:31:09;;;;;;;38.42;25.75;;;;;;;3.01;95.10;100491.41;5283519;28;20049;-74
2022/12/09 10:33:40;;;;;;;36.95;25.88;;;;;;;3.12;95.18;100494.13;5283339;28;20037;-74
2022/12/09 10:36:23;;;;;;;38.07;25.27;;;;;;;3.68;95.69;100493.94;5283559;28;20445;-74
2022/12/09 10:38:54;;;;;;;35.10;24.45;;;;;;;3.74;93.92;100491.44;5283584;28;20024;-75
2022/12/09 10:44:27;;;;;;;30.17;23.75;;;;;;;5.29;90.15;100494.25;5283466;28;20127;-74
2022/12/09 10:47:22;;;;;;;33.75;23.42;;;;;;;6.65;87.04;100489.31;5283355;28;20351;-74
2022/12/09 10:49:54;;;;;;;27.67;21.05;;;;;;;6.91;80.95;100489.25;5283598;28;20103;-75
2022/12/09 10:52:43;;;;;;;32.10;23.23;;;;;;;6.77;80.05;100490.16;5283446;28;20515;-75
2022/12/09 10:55:35;;;;;;;32.33;21.60;;;;;;;6.59;79.73;100491.91;5283811;28;20016;-74
2022/12/09 10:58:18;;;;;;;32.33;22.60;;;;;;;5.55;78.17;100498.66;5283251;28;20111;-74
2022/12/09 11:01:06;;;;;;;29.08;21.83;;;;;;;4.96;80.50;100489.81;5283042;28;20043;-74
2022/12/09 11:03:40;;;;;;;25.92;20.05;;;;;;;4.53;81.98;100484.38;5283308;28;20082;-74
2022/12/09 11:06:24;;;;;;;22.20;16.95;;;;;;;4.33;81.07;100489.38;5283021;28;20454;-74
2022/12/09 11:09:00;;;;;;;26.08;17.00;;;;;;;4.21;81.91;100484.97;5283031;28;20024;-74
2022/12/09 11:11:46;;;;;;;24.95;18.70;;;;;;;5.12;81.12;100493.34;5284914;28;20025;-74
2022/12/09 11:14:23;;;;;;;21.23;16.15;;;;;;;5.97;75.62;100478.97;5287462;28;20048;-73
2022/12/09 11:16:58;;;;;;;24.67;16.80;;;;;;;5.79;75.79;100484.94;5286998;28;20407;-73
2022/12/09 11:19:33;;;;;;;26.30;17.63;;;;;;;5.66;71.56;100483.19;5287645;28;20143;-75
2022/12/09 11:22:40;;;;;;;20.38;16.02;;;;;;;5.21;71.67;100485.59;5288216;28;20056;-73
2022/12/09 11:25:11;;;;;;;23.63;16.58;;;;;;;4.56;72.45;100479.25;5288218;28;20101;-73
2022/12/09 11:27:59;;;;;;;25.23;17.10;;;;;;;4.18;75.32;100484.97;5287942;28;20028;-74
2022/12/09 11:30:37;;;;;;;27.83;17.45;;;;;;;3.67;77.20;100483.59;5288047;28;20029;-73
2022/12/09 11:33:12;;;;;;;26.98;17.10;;;;;;;3.39;79.42;100489.31;5287666;28;20032;-74
2022/12/09 11:35:43;;;;;;;25.48;17.38;;;;;;;3.30;80.34;100489.22;5287563;28;20039;-74
2022/12/09 11:38:36;;;;;;;28.53;18.33;;;;;;;3.32;80.89;100481.50;5287658;28;20029;-74
2022/12/09 11:41:10;;;;;;;27.52;17.02;;;;;;;3.12;80.98;100482.13;5286924;28;20027;-73
2022/12/09 11:43:46;;;;;;;27.13;17.23;;;;;;;3.04;81.44;100483.72;5286850;28;20028;-73
2022/12/09 11:46:24;;;;;;;29.55;19.15;;;;;;;2.96;82.32;100481.03;5286888;28;20074;-74
2022/12/09 11:48:59;;;;;;;30.45;18.17;;;;;;;2.91;82.95;100480.13;5286664;28;20028;-74